| time (UTC) | temp F | wind direction | speed knots | gust knots | rain 1hr in | rain 24hr in | rain mn in | humidity % | barometer mb |
| 20260509075329 | 53 | 212 | 0.0 | 0.9 | 0.00 | 0.00 | 0.00 | 58 | 1017.7 |
| 20260509074827 | 53 | 193 | 1.7 | 1.7 | 0.00 | 0.00 | 0.00 | 59 | 1017.6 |
| 20260509074324 | 53 | 208 | 3.5 | 4.3 | 0.00 | 0.00 | 0.00 | 61 | 1017.6 |
| 20260509073820 | 53 | 174 | 1.7 | 1.7 | 0.00 | 0.00 | 0.00 | 61 | 1017.3 |
| 20260509073317 | 52 | 201 | 0.9 | 0.9 | 0.00 | 0.00 | 0.00 | 61 | 1017.5 |
| 20260509072814 | 53 | 231 | 0.9 | 0.9 | 0.00 | 0.00 | 0.00 | 61 | 1017.3 |
| 20260509072310 | 53 | 186 | 1.7 | 1.7 | 0.00 | 0.00 | 0.00 | 60 | 1017.4 |
| 20260509071807 | 53 | 189 | 0.9 | 0.9 | 0.00 | 0.00 | 0.00 | 59 | 1017.5 |
| 20260509071304 | 53 | 193 | 1.7 | 1.7 | 0.00 | 0.00 | 0.00 | 59 | 1017.4 |
| 20260509070801 | 53 | 211 | 1.7 | 1.7 | 0.00 | 0.00 | 0.00 | 59 | 1017.6 |
| 20260509070257 | 54 | 219 | 0.0 | 0.0 | 0.00 | 0.00 | 0.00 | 57 | 1017.5 |
| 20260509065754 | 54 | 192 | 1.7 | 1.7 | 0.00 | 0.00 | 0.00 | 57 | 1017.3 |
| 20260509065250 | 54 | 216 | 0.0 | 0.0 | 0.00 | 0.00 | 0.00 | 57 | 1017.3 |
| 20260509064746 | 55 | 212 | 0.0 | 0.0 | 0.00 | 0.00 | 0.00 | 56 | 1017.2 |
| 20260509064244 | 55 | 232 | 0.9 | 0.9 | 0.00 | 0.00 | 0.00 | 56 | 1017.3 |
| 20260509063741 | 55 | 221 | 0.9 | 0.9 | 0.00 | 0.00 | 0.00 | 54 | 1017.2 |
| 20260509063237 | 55 | 239 | 0.9 | 0.9 | 0.00 | 0.00 | 0.00 | 53 | 1017.2 |
| 20260509062735 | 56 | 220 | 0.0 | 0.0 | 0.00 | 0.00 | 0.00 | 52 | 1017.2 |
| 20260509062232 | 56 | 203 | 0.9 | 0.9 | 0.00 | 0.00 | 0.00 | 51 | 1017.2 |
| 20260509061729 | 56 | 224 | 0.0 | 0.0 | 0.00 | 0.00 | 0.00 | 53 | 1017.0 |
| 20260509061227 | 55 | 196 | 0.0 | 0.0 | 0.00 | 0.00 | 0.00 | 53 | 1017.2 |
| 20260509060724 | 55 | 213 | 0.9 | 0.9 | 0.00 | 0.00 | 0.00 | 52 | 1017.2 |
| 20260509060220 | 55 | 212 | 0.0 | 0.0 | 0.00 | 0.00 | 0.00 | 53 | 1017.0 |
| 20260509055716 | 55 | 216 | 0.0 | 0.0 | 0.00 | 0.00 | 0.00 | 52 | 1017.0 |
| 20260509055212 | 56 | 191 | 0.9 | 0.9 | 0.00 | 0.00 | 0.00 | 51 | 1017.0 |
| 20260509054709 | 56 | 224 | 0.0 | 0.0 | 0.00 | 0.00 | 0.00 | 50 | 1017.2 |
| 20260509054206 | 56 | 215 | 1.7 | 1.7 | 0.00 | 0.00 | 0.00 | 51 | 1017.0 |
| 20260509053704 | 55 | 224 | 0.0 | 0.9 | 0.00 | 0.00 | 0.00 | 53 | 1016.8 |
| 20260509053201 | 57 | 215 | 0.0 | 0.0 | 0.00 | 0.00 | 0.00 | 51 | 1016.9 |
| 20260509052659 | 58 | 213 | 0.0 | 0.0 | 0.00 | 0.00 | 0.00 | 47 | 1016.8 |
| 20260509052156 | 58 | 201 | 0.9 | 0.9 | 0.00 | 0.00 | 0.00 | 47 | 1016.8 |
| 20260509051654 | 57 | 198 | 0.9 | 0.9 | 0.00 | 0.00 | 0.00 | 49 | 1016.6 |
| 20260509051151 | 58 | 210 | 0.0 | 0.0 | 0.00 | 0.00 | 0.00 | 47 | 1016.6 |
| 20260509050648 | 59 | 72 | 1.7 | 1.7 | 0.00 | 0.00 | 0.00 | 47 | 1016.6 |
| 20260509050144 | 59 | 215 | 0.0 | 0.0 | 0.00 | 0.00 | 0.00 | 47 | 1016.7 |
| 20260509045642 | 59 | 209 | 0.0 | 0.0 | 0.00 | 0.00 | 0.00 | 47 | 1016.8 |
| 20260509045139 | 59 | 288 | 0.9 | 0.9 | 0.00 | 0.00 | 0.00 | 46 | 1016.5 |
| 20260509044636 | 59 | 218 | 0.0 | 0.0 | 0.00 | 0.00 | 0.00 | 45 | 1016.7 |
| 20260509044133 | 60 | 215 | 0.0 | 0.0 | 0.00 | 0.00 | 0.00 | 44 | 1016.6 |
| 20260509043629 | 60 | 213 | 0.9 | 0.9 | 0.00 | 0.00 | 0.00 | 43 | 1016.5 |
| 20260509043125 | 61 | 221 | 0.0 | 0.0 | 0.00 | 0.00 | 0.00 | 42 | 1016.5 |
| 20260509042622 | 61 | 212 | 0.9 | 0.9 | 0.00 | 0.00 | 0.00 | 41 | 1016.4 |
| 20260509042118 | 62 | 228 | 1.7 | 1.7 | 0.00 | 0.00 | 0.00 | 39 | 1016.2 |
| 20260509041615 | 62 | 222 | 0.9 | 0.9 | 0.00 | 0.00 | 0.00 | 39 | 1016.1 |
| 20260509041112 | 62 | 197 | 0.9 | 0.9 | 0.00 | 0.00 | 0.00 | 40 | 1016.0 |
| 20260509040611 | 62 | 193 | 0.9 | 1.7 | 0.00 | 0.00 | 0.00 | 39 | 1016.2 |
| 20260509040107 | 63 | 205 | 0.9 | 0.9 | 0.00 | 0.00 | 0.00 | 38 | 1016.2 |
| 20260509035604 | 63 | 295 | 0.9 | 0.9 | 0.00 | 0.00 | 0.00 | 38 | 1016.0 |
| 20260509035100 | 64 | 203 | 0.0 | 0.9 | 0.00 | 0.00 | 0.00 | 37 | 1016.1 |
| 20260509034559 | 65 | 291 | 1.7 | 1.7 | 0.00 | 0.00 | 0.00 | 36 | 1016.2 |
| 20260509034055 | 66 | 244 | 1.7 | 1.7 | 0.00 | 0.00 | 0.00 | 34 | 1015.9 |
| 20260509033553 | 66 | 14 | 1.7 | 1.7 | 0.00 | 0.00 | 0.00 | 32 | 1016.0 |
| 20260509033049 | 67 | 298 | 0.9 | 0.9 | 0.00 | 0.00 | 0.00 | 31 | 1016.0 |
| 20260509032547 | 67 | 154 | 0.9 | 0.9 | 0.00 | 0.00 | 0.00 | 31 | 1015.8 |
| 20260509032044 | 67 | 46 | 1.7 | 1.7 | 0.00 | 0.00 | 0.00 | 32 | 1016.0 |
| 20260509031541 | 67 | 69 | 3.5 | 4.3 | 0.00 | 0.00 | 0.00 | 32 | 1015.8 |
| 20260509031038 | 67 | 291 | 2.6 | 2.6 | 0.00 | 0.00 | 0.00 | 33 | 1016.0 |
| 20260509030537 | 67 | 243 | 1.7 | 1.7 | 0.00 | 0.00 | 0.00 | 34 | 1015.8 |
| 20260509030033 | 67 | 67 | 4.3 | 6.1 | 0.00 | 0.00 | 0.00 | 35 | 1015.7 |
| 20260509025529 | 66 | 324 | 0.9 | 0.9 | 0.00 | 0.00 | 0.00 | 38 | 1015.7 |
| 20260509025025 | 67 | 234 | 0.0 | 0.9 | 0.00 | 0.00 | 0.00 | 39 | 1015.8 |
| 20260509024521 | 67 | 46 | 6.1 | 7.0 | 0.00 | 0.00 | 0.00 | 38 | 1015.7 |
| 20260509024017 | 67 | 32 | 2.6 | 2.6 | 0.00 | 0.00 | 0.00 | 38 | 1015.7 |
| 20260509023515 | 68 | 353 | 3.5 | 4.3 | 0.00 | 0.00 | 0.00 | 41 | 1015.3 |
| 20260509023012 | 68 | 328 | 1.7 | 1.7 | 0.00 | 0.00 | 0.00 | 44 | 1015.3 |
| 20260509022508 | 69 | 301 | 2.6 | 2.6 | 0.00 | 0.00 | 0.00 | 42 | 1015.0 |
| 20260509022006 | 70 | 345 | 1.7 | 2.6 | 0.00 | 0.00 | 0.00 | 40 | 1015.1 |
| 20260509021503 | 71 | 337 | 4.3 | 5.2 | 0.00 | 0.00 | 0.00 | 40 | 1015.0 |
| 20260509021000 | 71 | 184 | 3.5 | 6.1 | 0.00 | 0.00 | 0.00 | 38 | 1014.9 |
| 20260509020458 | 72 | 261 | 1.7 | 1.7 | 0.00 | 0.00 | 0.00 | 38 | 1015.0 |
| 20260509015954 | 73 | 234 | 0.9 | 0.9 | 0.00 | 0.00 | 0.00 | 35 | 1014.9 |
| 20260509015454 | 74 | 253 | 0.9 | 0.9 | 0.00 | 0.00 | 0.00 | 33 | 1014.9 |
| 20260509014950 | 74 | 220 | 0.9 | 1.7 | 0.00 | 0.00 | 0.00 | 33 | 1014.8 |
| 20260509014447 | 74 | 261 | 0.9 | 1.7 | 0.00 | 0.00 | 0.00 | 33 | 1014.6 |
| 20260509013943 | 74 | 262 | 0.9 | 1.7 | 0.00 | 0.00 | 0.00 | 34 | 1014.8 |
| 20260509013440 | 74 | 258 | 1.7 | 1.7 | 0.00 | 0.00 | 0.00 | 33 | 1014.6 |
| 20260509012936 | 74 | 225 | 1.7 | 1.7 | 0.00 | 0.00 | 0.00 | 33 | 1014.5 |
| 20260509012432 | 75 | 234 | 0.9 | 1.7 | 0.00 | 0.00 | 0.00 | 31 | 1014.6 |
| 20260509011929 | 75 | 233 | 0.9 | 0.9 | 0.00 | 0.00 | 0.00 | 33 | 1014.8 |
| 20260509011427 | 75 | 327 | 5.2 | 6.1 | 0.00 | 0.00 | 0.00 | 31 | 1014.9 |
| 20260509010925 | 75 | 253 | 0.0 | 0.0 | 0.00 | 0.00 | 0.00 | 30 | 1014.9 |
| 20260509010422 | 76 | 235 | 0.9 | 0.9 | 0.00 | 0.00 | 0.00 | 31 | 1014.9 |
| 20260509005919 | 76 | 244 | 2.6 | 2.6 | 0.00 | 0.00 | 0.00 | 30 | 1014.6 |
| 20260509005417 | 75 | 238 | 1.7 | 1.7 | 0.00 | 0.00 | 0.00 | 30 | 1014.9 |
| 20260509004917 | 76 | 271 | 3.5 | 4.3 | 0.00 | 0.00 | 0.00 | 30 | 1014.8 |
| 20260509004413 | 76 | 51 | 1.7 | 1.7 | 0.00 | 0.00 | 0.00 | 32 | 1014.6 |
| 20260509003911 | 76 | 221 | 0.9 | 0.9 | 0.00 | 0.00 | 0.00 | 31 | 1014.6 |
| 20260509003409 | 76 | 233 | 1.7 | 1.7 | 0.00 | 0.00 | 0.00 | 32 | 1015.0 |
| 20260509002906 | 75 | 220 | 1.7 | 1.7 | 0.00 | 0.00 | 0.00 | 33 | 1014.9 |
| 20260509002404 | 74 | 196 | 1.7 | 1.7 | 0.00 | 0.00 | 0.00 | 32 | 1014.9 |
| 20260509001901 | 74 | 150 | 6.1 | 7.0 | 0.00 | 0.00 | 0.00 | 32 | 1015.0 |
| 20260509001356 | 75 | 192 | 4.3 | 5.2 | 0.00 | 0.00 | 0.00 | 33 | 1015.0 |
| 20260509000854 | 75 | 242 | 4.3 | 5.2 | 0.00 | 0.00 | 0.00 | 31 | 1015.2 |
| 20260509000352 | 75 | 288 | 5.2 | 7.0 | 0.00 | 0.00 | 0.00 | 31 | 1015.0 |
| 20260508235848 | 75 | 238 | 2.6 | 2.6 | 0.00 | 0.00 | 0.00 | 33 | 1015.0 |
| 20260508235345 | 75 | 193 | 3.5 | 4.3 | 0.00 | 0.00 | 0.00 | 32 | 1014.9 |
| 20260508234842 | 75 | 221 | 3.5 | 4.3 | 0.00 | 0.00 | 0.00 | 32 | 1015.1 |
| 20260508234338 | 75 | 189 | 2.6 | 2.6 | 0.00 | 0.00 | 0.00 | 33 | 1015.2 |
| 20260508233837 | 74 | 243 | 6.1 | 7.0 | 0.00 | 0.00 | 0.00 | 33 | 1015.1 |
| 20260508233336 | 75 | 202 | 7.8 | 8.7 | 0.00 | 0.00 | 0.00 | 33 | 1015.0 |
| 20260508232832 | 74 | 185 | 2.6 | 4.3 | 0.00 | 0.00 | 0.00 | 33 | 1014.9 |
| 20260508232329 | 74 | 221 | 2.6 | 2.6 | 0.00 | 0.00 | 0.00 | 33 | 1015.1 |
| 20260508231827 | 74 | 192 | 7.0 | 8.7 | 0.00 | 0.00 | 0.00 | 34 | 1015.2 |
| 20260508231323 | 74 | 161 | 3.5 | 4.3 | 0.00 | 0.00 | 0.00 | 33 | 1014.9 |
| 20260508230820 | 75 | 160 | 4.3 | 6.1 | 0.00 | 0.00 | 0.00 | 34 | 1015.1 |
| 20260508230316 | 74 | 181 | 5.2 | 7.8 | 0.00 | 0.00 | 0.00 | 34 | 1015.2 |
| 20260508225814 | 74 | 187 | 3.5 | 5.2 | 0.00 | 0.00 | 0.00 | 33 | 1015.3 |
| 20260508225310 | 74 | 159 | 4.3 | 7.0 | 0.00 | 0.00 | 0.00 | 34 | 1015.2 |
| 20260508224809 | 75 | 239 | 8.7 | 9.6 | 0.00 | 0.00 | 0.00 | 32 | 1015.3 |
| 20260508224306 | 74 | 222 | 7.0 | 8.7 | 0.00 | 0.00 | 0.00 | 35 | 1015.4 |
| 20260508223803 | 75 | 202 | 4.3 | 5.2 | 0.00 | 0.00 | 0.00 | 34 | 1015.1 |
| 20260508223301 | 73 | 201 | 4.3 | 6.1 | 0.00 | 0.00 | 0.00 | 34 | 1015.3 |
| 20260508222758 | 74 | 189 | 7.0 | 7.8 | 0.00 | 0.00 | 0.00 | 33 | 1015.2 |
| 20260508222255 | 75 | 216 | 4.3 | 5.2 | 0.00 | 0.00 | 0.00 | 34 | 1015.2 |
| 20260508221751 | 75 | 229 | 3.5 | 4.3 | 0.00 | 0.00 | 0.00 | 33 | 1015.7 |
| 20260508221247 | 74 | 245 | 2.6 | 2.6 | 0.00 | 0.00 | 0.00 | 34 | 1015.7 |
| 20260508220743 | 75 | 241 | 4.3 | 7.0 | 0.00 | 0.00 | 0.00 | 31 | 1015.9 |
| 20260508220240 | 75 | 219 | 6.1 | 7.0 | 0.00 | 0.00 | 0.00 | 32 | 1015.9 |
| 20260508215736 | 74 | 207 | 7.0 | 8.7 | 0.00 | 0.00 | 0.00 | 33 | 1015.9 |
| 20260508215233 | 75 | 224 | 6.1 | 7.0 | 0.00 | 0.00 | 0.00 | 33 | 1015.9 |
| 20260508214730 | 75 | 226 | 3.5 | 5.2 | 0.00 | 0.00 | 0.00 | 30 | 1015.9 |
| 20260508214228 | 75 | 296 | 4.3 | 5.2 | 0.00 | 0.00 | 0.00 | 32 | 1016.0 |
| 20260508213724 | 74 | 235 | 2.6 | 2.6 | 0.00 | 0.00 | 0.00 | 31 | 1015.9 |
| 20260508213220 | 75 | 207 | 0.9 | 1.7 | 0.00 | 0.00 | 0.00 | 32 | 1016.2 |
| 20260508212717 | 76 | 269 | 4.3 | 5.2 | 0.00 | 0.00 | 0.00 | 32 | 1016.0 |
| 20260508212214 | 75 | 279 | 4.3 | 5.2 | 0.00 | 0.00 | 0.00 | 32 | 1016.0 |
| 20260508211709 | 76 | 258 | 4.3 | 5.2 | 0.00 | 0.00 | 0.00 | 32 | 1016.2 |
| 20260508211205 | 75 | 318 | 3.5 | 4.3 | 0.00 | 0.00 | 0.00 | 32 | 1016.2 |
| 20260508210703 | 73 | 242 | 1.7 | 1.7 | 0.00 | 0.00 | 0.00 | 32 | 1016.1 |
| 20260508210200 | 74 | 304 | 3.5 | 6.1 | 0.00 | 0.00 | 0.00 | 31 | 1016.5 |
| 20260508205656 | 74 | 309 | 2.6 | 2.6 | 0.00 | 0.00 | 0.00 | 31 | 1016.6 |
| 20260508205153 | 75 | 215 | 2.6 | 4.3 | 0.00 | 0.00 | 0.00 | 31 | 1016.5 |
| 20260508204649 | 74 | 235 | 2.6 | 4.3 | 0.00 | 0.00 | 0.00 | 30 | 1016.8 |
| 20260508204145 | 74 | 254 | 2.6 | 4.3 | 0.00 | 0.00 | 0.00 | 30 | 1016.6 |
| 20260508203642 | 74 | 269 | 2.6 | 4.3 | 0.00 | 0.00 | 0.00 | 32 | 1016.7 |
| 20260508203138 | 74 | 245 | 2.6 | 2.6 | 0.00 | 0.00 | 0.00 | 31 | 1016.7 |
| 20260508202634 | 73 | 223 | 1.7 | 1.7 | 0.00 | 0.00 | 0.00 | 31 | 1016.7 |
| 20260508202132 | 75 | 294 | 6.1 | 7.8 | 0.00 | 0.00 | 0.00 | 32 | 1016.9 |
| 20260508201628 | 74 | 294 | 3.5 | 6.1 | 0.00 | 0.00 | 0.00 | 32 | 1016.9 |
| 20260508201125 | 72 | 205 | 2.6 | 4.3 | 0.00 | 0.00 | 0.00 | 33 | 1016.8 |
| 20260508200622 | 73 | 218 | 0.0 | 0.0 | 0.00 | 0.00 | 0.00 | 33 | 1016.8 |
| 20260508200118 | 74 | 243 | 5.2 | 6.1 | 0.00 | 0.00 | 0.00 | 33 | 1016.9 |
| 20260508195614 | 73 | 219 | 3.5 | 5.2 | 0.00 | 0.00 | 0.00 | 32 | 1017.2 |
| 20260508195111 | 73 | 278 | 5.2 | 7.0 | 0.00 | 0.00 | 0.00 | 32 | 1017.2 |
| 20260508194608 | 74 | 295 | 6.1 | 7.8 | 0.00 | 0.00 | 0.00 | 32 | 1017.0 |
| 20260508194105 | 73 | 303 | 5.2 | 7.8 | 0.00 | 0.00 | 0.00 | 32 | 1017.2 |
| 20260508193601 | 72 | 10 | 7.8 | 9.6 | 0.00 | 0.00 | 0.00 | 33 | 1017.0 |
| 20260508193058 | 74 | 320 | 7.0 | 8.7 | 0.00 | 0.00 | 0.00 | 31 | 1017.2 |
| 20260508192555 | 73 | 295 | 3.5 | 5.2 | 0.00 | 0.00 | 0.00 | 33 | 1017.0 |
| 20260508192052 | 73 | 271 | 0.9 | 1.7 | 0.00 | 0.00 | 0.00 | 33 | 1017.3 |
| 20260508191548 | 72 | 242 | 2.6 | 2.6 | 0.00 | 0.00 | 0.00 | 33 | 1017.3 |
| 20260508191045 | 72 | 176 | 2.6 | 2.6 | 0.00 | 0.00 | 0.00 | 33 | 1017.5 |
| 20260508190543 | 71 | 234 | 0.9 | 0.9 | 0.00 | 0.00 | 0.00 | 33 | 1017.5 |
| 20260508190039 | 72 | 229 | 4.3 | 5.2 | 0.00 | 0.00 | 0.00 | 32 | 1017.6 |
| 20260508185536 | 72 | 283 | 5.2 | 7.8 | 0.00 | 0.00 | 0.00 | 32 | 1017.6 |
| 20260508185034 | 72 | 272 | 3.5 | 7.0 | 0.00 | 0.00 | 0.00 | 34 | 1017.7 |
| 20260508184531 | 72 | 281 | 3.5 | 5.2 | 0.00 | 0.00 | 0.00 | 33 | 1017.7 |
| 20260508184028 | 71 | 266 | 1.7 | 2.6 | 0.00 | 0.00 | 0.00 | 34 | 1017.6 |
| 20260508183524 | 71 | 230 | 0.9 | 0.9 | 0.00 | 0.00 | 0.00 | 35 | 1017.8 |
| 20260508183020 | 71 | 220 | 1.7 | 1.7 | 0.00 | 0.00 | 0.00 | 35 | 1017.7 |
| 20260508182517 | 70 | 180 | 2.6 | 2.6 | 0.00 | 0.00 | 0.00 | 37 | 1018.0 |
| 20260508182013 | 71 | 190 | 1.7 | 1.7 | 0.00 | 0.00 | 0.00 | 38 | 1017.7 |
| 20260508181509 | 69 | 225 | 1.7 | 1.7 | 0.00 | 0.00 | 0.00 | 37 | 1018.0 |
| 20260508181007 | 70 | 306 | 2.6 | 4.3 | 0.00 | 0.00 | 0.00 | 37 | 1017.8 |
| 20260508180503 | 70 | 193 | 4.3 | 5.2 | 0.00 | 0.00 | 0.00 | 37 | 1018.0 |
| 20260508175959 | 69 | 222 | 0.9 | 0.9 | 0.00 | 0.00 | 0.00 | 38 | 1018.3 |
| 20260508175455 | 69 | 211 | 2.6 | 2.6 | 0.00 | 0.00 | 0.00 | 37 | 1018.3 |
| 20260508174953 | 69 | 166 | 5.2 | 6.1 | 0.00 | 0.00 | 0.00 | 37 | 1018.3 |
| 20260508174451 | 69 | 235 | 0.9 | 0.9 | 0.00 | 0.00 | 0.00 | 37 | 1018.0 |
| 20260508173948 | 68 | 315 | 1.7 | 1.7 | 0.00 | 0.00 | 0.00 | 38 | 1018.3 |
| 20260508173445 | 68 | 278 | 1.7 | 1.7 | 0.00 | 0.00 | 0.00 | 39 | 1018.3 |
| 20260508172940 | 68 | 320 | 2.6 | 4.3 | 0.00 | 0.00 | 0.00 | 39 | 1018.3 |
| 20260508172438 | 68 | 222 | 2.6 | 2.6 | 0.00 | 0.00 | 0.00 | 39 | 1018.0 |
| 20260508171934 | 68 | 253 | 2.6 | 2.6 | 0.00 | 0.00 | 0.00 | 39 | 1018.3 |
| 20260508171430 | 68 | 195 | 0.9 | 0.9 | 0.00 | 0.00 | 0.00 | 38 | 1018.4 |
| 20260508170927 | 68 | 214 | 0.9 | 0.9 | 0.00 | 0.00 | 0.00 | 38 | 1018.4 |
| 20260508170425 | 67 | 14 | 2.6 | 2.6 | 0.00 | 0.00 | 0.00 | 39 | 1018.2 |
| 20260508165921 | 67 | 342 | 3.5 | 5.2 | 0.00 | 0.00 | 0.00 | 39 | 1018.2 |
| 20260508165420 | 66 | 278 | 1.7 | 1.7 | 0.00 | 0.00 | 0.00 | 42 | 1018.4 |
| 20260508164915 | 66 | 321 | 3.5 | 5.2 | 0.00 | 0.00 | 0.00 | 42 | 1018.3 |
| 20260508164412 | 66 | 225 | 1.7 | 1.7 | 0.00 | 0.00 | 0.00 | 43 | 1018.3 |
| 20260508163909 | 65 | 232 | 1.7 | 1.7 | 0.00 | 0.00 | 0.00 | 42 | 1018.2 |
| 20260508163407 | 66 | 249 | 3.5 | 4.3 | 0.00 | 0.00 | 0.00 | 42 | 1018.1 |
| 20260508162902 | 65 | 288 | 2.6 | 4.3 | 0.00 | 0.00 | 0.00 | 42 | 1018.3 |
| 20260508162400 | 65 | 227 | 4.3 | 6.1 | 0.00 | 0.00 | 0.00 | 40 | 1018.3 |
| 20260508161857 | 64 | 201 | 2.6 | 2.6 | 0.00 | 0.00 | 0.00 | 40 | 1018.1 |
| 20260508161354 | 65 | 233 | 0.0 | 0.0 | 0.00 | 0.00 | 0.00 | 40 | 1018.3 |
| 20260508160851 | 64 | 209 | 0.9 | 0.9 | 0.00 | 0.00 | 0.00 | 41 | 1018.3 |
| 20260508160350 | 64 | 206 | 0.9 | 1.7 | 0.00 | 0.00 | 0.00 | 39 | 1018.2 |
| 20260508155846 | 65 | 183 | 0.9 | 1.7 | 0.00 | 0.00 | 0.00 | 42 | 1018.3 |
| 20260508155343 | 64 | 159 | 1.7 | 1.7 | 0.00 | 0.00 | 0.00 | 42 | 1018.3 |
| 20260508154840 | 63 | 330 | 3.5 | 4.3 | 0.00 | 0.00 | 0.00 | 43 | 1018.2 |
| 20260508154338 | 63 | 209 | 0.9 | 0.9 | 0.00 | 0.00 | 0.00 | 46 | 1018.2 |
| 20260508153834 | 61 | 199 | 0.9 | 0.9 | 0.00 | 0.00 | 0.00 | 53 | 1018.2 |
| 20260508153331 | 60 | 326 | 1.7 | 2.6 | 0.00 | 0.00 | 0.00 | 55 | 1018.3 |
| 20260508152827 | 60 | 151 | 0.9 | 0.9 | 0.00 | 0.00 | 0.00 | 54 | 1018.2 |
| 20260508152324 | 59 | 184 | 0.9 | 1.7 | 0.00 | 0.00 | 0.00 | 55 | 1018.3 |
| 20260508151820 | 58 | 249 | 0.9 | 0.9 | 0.00 | 0.00 | 0.00 | 58 | 1018.3 |
| 20260508151317 | 57 | 31 | 1.7 | 1.7 | 0.00 | 0.00 | 0.00 | 59 | 1018.3 |
| 20260508150814 | 56 | 207 | 0.0 | 0.0 | 0.00 | 0.00 | 0.00 | 60 | 1018.2 |
| 20260508150310 | 54 | 218 | 0.9 | 0.9 | 0.00 | 0.00 | 0.00 | 63 | 1018.2 |
| 20260508145807 | 55 | 218 | 0.9 | 0.9 | 0.00 | 0.00 | 0.00 | 61 | 1018.2 |
| 20260508145306 | 54 | 227 | 1.7 | 2.6 | 0.00 | 0.00 | 0.00 | 63 | 1018.0 |
| 20260508144800 | 54 | 204 | 2.6 | 2.6 | 0.00 | 0.00 | 0.00 | 63 | 1018.0 |
| 20260508144258 | 53 | 214 | 0.9 | 0.9 | 0.00 | 0.00 | 0.00 | 64 | 1018.2 |
| 20260508143755 | 53 | 246 | 2.6 | 2.6 | 0.00 | 0.00 | 0.00 | 64 | 1018.3 |
| 20260508143252 | 53 | 266 | 2.6 | 2.6 | 0.00 | 0.00 | 0.00 | 64 | 1018.0 |
| 20260508142748 | 53 | 230 | 0.9 | 0.9 | 0.00 | 0.00 | 0.00 | 62 | 1018.0 |
| 20260508142245 | 53 | 209 | 0.0 | 0.9 | 0.00 | 0.00 | 0.00 | 63 | 1018.0 |
| 20260508141742 | 53 | 280 | 1.7 | 1.7 | 0.00 | 0.00 | 0.00 | 61 | 1018.0 |
| 20260508141239 | 53 | 264 | 0.9 | 1.7 | 0.00 | 0.00 | 0.00 | 62 | 1017.6 |
| 20260508140736 | 52 | 215 | 0.9 | 0.9 | 0.00 | 0.00 | 0.00 | 63 | 1017.7 |
| 20260508140233 | 52 | 211 | 0.9 | 0.9 | 0.00 | 0.00 | 0.00 | 63 | 1017.7 |
| 20260508135729 | 52 | 219 | 0.0 | 0.0 | 0.00 | 0.00 | 0.00 | 63 | 1017.8 |
| 20260508135225 | 51 | 215 | 0.9 | 1.7 | 0.00 | 0.00 | 0.00 | 65 | 1017.7 |
| 20260508134721 | 51 | 218 | 0.0 | 0.9 | 0.00 | 0.00 | 0.00 | 65 | 1017.8 |
| 20260508134219 | 51 | 225 | 0.0 | 0.9 | 0.00 | 0.00 | 0.00 | 65 | 1017.6 |
| 20260508133715 | 50 | 225 | 0.0 | 0.9 | 0.00 | 0.00 | 0.00 | 67 | 1017.5 |
| 20260508133213 | 50 | 231 | 0.0 | 0.9 | 0.00 | 0.00 | 0.00 | 68 | 1017.4 |
| 20260508132711 | 49 | 251 | 1.7 | 1.7 | 0.00 | 0.00 | 0.00 | 70 | 1017.5 |
| 20260508132208 | 48 | 247 | 1.7 | 2.6 | 0.00 | 0.00 | 0.00 | 72 | 1017.5 |
| 20260508131703 | 48 | 235 | 0.9 | 0.9 | 0.00 | 0.00 | 0.00 | 73 | 1017.3 |
| 20260508131159 | 47 | 224 | 0.0 | 0.0 | 0.00 | 0.00 | 0.00 | 75 | 1017.4 |
| 20260508130656 | 46 | 252 | 0.9 | 0.9 | 0.00 | 0.00 | 0.00 | 78 | 1017.3 |
| 20260508130153 | 45 | 290 | 1.7 | 1.7 | 0.00 | 0.00 | 0.00 | 81 | 1017.0 |
| 20260508125649 | 44 | 231 | 0.9 | 0.9 | 0.00 | 0.00 | 0.00 | 82 | 1017.2 |
| 20260508125146 | 44 | 276 | 1.7 | 1.7 | 0.00 | 0.00 | 0.00 | 83 | 1016.9 |
| 20260508124644 | 44 | 252 | 1.7 | 2.6 | 0.00 | 0.00 | 0.00 | 83 | 1016.9 |
| 20260508124141 | 44 | 236 | 0.0 | 0.0 | 0.00 | 0.00 | 0.00 | 81 | 1017.0 |
| 20260508123639 | 44 | 236 | 0.0 | 0.0 | 0.00 | 0.00 | 0.00 | 80 | 1016.8 |
| 20260508123137 | 44 | 278 | 1.7 | 1.7 | 0.00 | 0.00 | 0.00 | 80 | 1016.9 |
| 20260508122632 | 44 | 268 | 0.9 | 1.7 | 0.00 | 0.00 | 0.00 | 80 | 1016.7 |
| 20260508122129 | 44 | 336 | 2.6 | 2.6 | 0.00 | 0.00 | 0.00 | 80 | 1016.7 |
| 20260508121628 | 44 | 259 | 0.0 | 0.0 | 0.00 | 0.00 | 0.00 | 79 | 1016.6 |
| 20260508121126 | 44 | 239 | 0.0 | 0.0 | 0.00 | 0.00 | 0.00 | 79 | 1016.4 |
| 20260508120623 | 44 | 221 | 0.0 | 0.0 | 0.00 | 0.00 | 0.00 | 78 | 1016.2 |
| 20260508120121 | 45 | 233 | 0.0 | 0.0 | 0.00 | 0.00 | 0.00 | 75 | 1016.1 |
| 20260508115618 | 47 | 234 | 2.6 | 2.6 | 0.00 | 0.00 | 0.00 | 72 | 1016.2 |
| 20260508115115 | 47 | 229 | 0.9 | 0.9 | 0.00 | 0.00 | 0.00 | 68 | 1016.0 |
| 20260508114612 | 48 | 233 | 0.9 | 0.9 | 0.00 | 0.00 | 0.00 | 66 | 1016.0 |
| 20260508114108 | 48 | 248 | 0.0 | 0.0 | 0.00 | 0.00 | 0.00 | 65 | 1016.2 |
| 20260508113605 | 47 | 248 | 0.9 | 0.9 | 0.00 | 0.00 | 0.00 | 65 | 1016.4 |
| 20260508113104 | 47 | 249 | 0.9 | 0.9 | 0.00 | 0.00 | 0.00 | 67 | 1015.8 |
| 20260508112559 | 47 | 214 | 0.9 | 0.9 | 0.00 | 0.00 | 0.00 | 67 | 1016.0 |
| 20260508112056 | 48 | 229 | 0.9 | 0.9 | 0.00 | 0.00 | 0.00 | 65 | 1015.9 |
| 20260508111553 | 47 | 99 | 2.6 | 2.6 | 0.00 | 0.00 | 0.00 | 62 | 1016.0 |
| 20260508111050 | 47 | 167 | 0.9 | 1.7 | 0.00 | 0.00 | 0.00 | 68 | 1016.0 |
| 20260508110548 | 47 | 160 | 0.9 | 0.9 | 0.00 | 0.00 | 0.00 | 68 | 1016.0 |
| 20260508110044 | 47 | 237 | 0.0 | 0.0 | 0.00 | 0.00 | 0.00 | 69 | 1016.1 |
| 20260508105539 | 47 | 213 | 0.9 | 0.9 | 0.00 | 0.00 | 0.00 | 67 | 1015.9 |
| 20260508105036 | 48 | 220 | 0.0 | 0.0 | 0.00 | 0.00 | 0.00 | 67 | 1015.9 |
| 20260508104534 | 48 | 213 | 0.0 | 0.0 | 0.00 | 0.00 | 0.00 | 67 | 1015.8 |
| 20260508104030 | 48 | 228 | 0.0 | 0.0 | 0.00 | 0.00 | 0.00 | 64 | 1015.7 |
| 20260508103527 | 48 | 236 | 0.0 | 0.0 | 0.00 | 0.00 | 0.00 | 64 | 1015.8 |
| 20260508103025 | 48 | 262 | 0.0 | 0.0 | 0.00 | 0.00 | 0.00 | 64 | 1015.8 |
| 20260508102522 | 49 | 220 | 0.0 | 0.0 | 0.00 | 0.00 | 0.00 | 64 | 1015.9 |
| 20260508102020 | 50 | 214 | 0.9 | 0.9 | 0.00 | 0.00 | 0.00 | 62 | 1015.8 |
| 20260508101517 | 50 | 195 | 0.0 | 0.0 | 0.00 | 0.00 | 0.00 | 58 | 1015.6 |
| 20260508101014 | 51 | 226 | 0.0 | 0.0 | 0.00 | 0.00 | 0.00 | 59 | 1015.7 |
| 20260508100512 | 52 | 227 | 0.0 | 0.9 | 0.00 | 0.00 | 0.00 | 57 | 1015.6 |
| 20260508100009 | 52 | 196 | 1.7 | 1.7 | 0.00 | 0.00 | 0.00 | 58 | 1015.7 |
| 20260508095506 | 53 | 173 | 1.7 | 1.7 | 0.00 | 0.00 | 0.00 | 56 | 1015.7 |
| 20260508095003 | 52 | 188 | 1.7 | 1.7 | 0.00 | 0.00 | 0.00 | 59 | 1015.7 |
| 20260508094500 | 52 | 200 | 0.9 | 0.9 | 0.00 | 0.00 | 0.00 | 59 | 1015.8 |
| 20260508093956 | 52 | 170 | 2.6 | 2.6 | 0.00 | 0.00 | 0.00 | 59 | 1015.8 |
| 20260508093454 | 52 | 183 | 2.6 | 2.6 | 0.00 | 0.00 | 0.00 | 61 | 1015.7 |
| 20260508092951 | 51 | 168 | 3.5 | 4.3 | 0.00 | 0.00 | 0.00 | 62 | 1015.7 |
| 20260508092449 | 51 | 224 | 0.0 | 0.0 | 0.00 | 0.00 | 0.00 | 64 | 1015.4 |
| 20260508091948 | 51 | 186 | 1.7 | 1.7 | 0.00 | 0.00 | 0.00 | 63 | 1015.6 |
| 20260508091444 | 52 | 43 | 1.7 | 1.7 | 0.00 | 0.00 | 0.00 | 64 | 1015.7 |
| 20260508090941 | 53 | 178 | 1.7 | 2.6 | 0.00 | 0.00 | 0.00 | 62 | 1015.7 |
| 20260508090440 | 53 | 168 | 2.6 | 2.6 | 0.00 | 0.00 | 0.00 | 61 | 1015.4 |
| 20260508085935 | 52 | 229 | 3.5 | 4.3 | 0.00 | 0.00 | 0.00 | 61 | 1015.4 |
| 20260508085432 | 53 | 205 | 0.9 | 0.9 | 0.00 | 0.00 | 0.00 | 61 | 1015.3 |
| 20260508084929 | 53 | 215 | 3.5 | 4.3 | 0.00 | 0.00 | 0.00 | 62 | 1015.6 |
| 20260508084425 | 53 | 229 | 2.6 | 2.6 | 0.00 | 0.00 | 0.00 | 61 | 1015.6 |
| 20260508083924 | 52 | 209 | 1.7 | 1.7 | 0.00 | 0.00 | 0.00 | 64 | 1015.4 |
| 20260508083421 | 52 | 220 | 1.7 | 1.7 | 0.00 | 0.00 | 0.00 | 63 | 1015.3 |
| 20260508082920 | 51 | 198 | 2.6 | 2.6 | 0.00 | 0.00 | 0.00 | 65 | 1015.6 |
| 20260508082418 | 50 | 221 | 0.0 | 0.0 | 0.00 | 0.00 | 0.00 | 67 | 1015.8 |
| 20260508081916 | 51 | 224 | 0.0 | 0.0 | 0.00 | 0.00 | 0.00 | 68 | 1015.8 |
| 20260508081412 | 50 | 165 | 2.6 | 2.6 | 0.00 | 0.00 | 0.00 | 69 | 1015.7 |
| 20260508080908 | 50 | 196 | 0.9 | 0.9 | 0.00 | 0.00 | 0.00 | 69 | 1015.6 |
| 20260508080407 | 50 | 221 | 0.0 | 0.0 | 0.00 | 0.00 | 0.00 | 71 | 1015.6 |
| 20260508075903 | 50 | 214 | 0.0 | 0.0 | 0.00 | 0.00 | 0.00 | 71 | 1015.7 |
| 20260508075400 | 50 | 150 | 0.9 | 1.7 | 0.00 | 0.00 | 0.00 | 70 | 1015.7 |